createdAt,value
2018-09-18T00:00:20.126Z,12.60
2018-09-18T00:02:47.919Z,12.60
2018-09-18T00:05:15.523Z,12.50
2018-09-18T00:07:43.197Z,12.50
2018-09-18T00:10:10.818Z,12.60
2018-09-18T00:12:38.382Z,12.60
2018-09-18T00:15:06.114Z,12.50
2018-09-18T00:17:33.818Z,12.60
2018-09-18T00:20:01.505Z,12.50
2018-09-18T00:22:30.170Z,12.50
2018-09-18T00:24:57.815Z,12.50
2018-09-18T00:27:25.472Z,12.50
2018-09-18T00:29:53.106Z,12.40
2018-09-18T00:32:20.786Z,12.50
2018-09-18T00:34:48.453Z,12.50
2018-09-18T00:37:16.215Z,12.40
2018-09-18T00:39:43.882Z,12.50
2018-09-18T00:42:11.538Z,12.40
2018-09-18T00:44:39.190Z,12.40
2018-09-18T00:47:06.890Z,12.30
2018-09-18T00:49:34.550Z,12.30
2018-09-18T00:52:02.262Z,12.30
2018-09-18T00:54:29.957Z,12.30
2018-09-18T00:56:57.606Z,12.20
2018-09-18T00:59:25.218Z,12.20
2018-09-18T01:01:52.859Z,12.10
2018-09-18T01:04:20.519Z,12.10
2018-09-18T01:06:48.178Z,12.10
2018-09-18T01:09:15.826Z,12.10
2018-09-18T01:11:43.439Z,12.00
2018-09-18T01:14:11.058Z,12.00
2018-09-18T01:16:38.696Z,12.00
2018-09-18T01:19:06.390Z,12.10
2018-09-18T01:21:34.050Z,12.10
2018-09-18T01:24:01.698Z,12.00
2018-09-18T01:26:29.362Z,12.10
2018-09-18T01:28:56.966Z,12.10
2018-09-18T01:31:27.878Z,12.10
2018-09-18T01:33:55.978Z,12.10
2018-09-18T01:36:23.643Z,12.00
2018-09-18T01:38:51.339Z,12.00
2018-09-18T01:41:19.065Z,12.10
2018-09-18T01:43:46.842Z,12.00
2018-09-18T01:46:14.482Z,12.00
2018-09-18T01:48:42.145Z,12.10
2018-09-18T01:51:09.774Z,12.00
2018-09-18T01:53:37.390Z,12.00
2018-09-18T01:56:05.044Z,12.00
2018-09-18T01:58:32.663Z,12.00
2018-09-18T02:01:00.339Z,11.90
2018-09-18T02:03:27.942Z,11.90
2018-09-18T02:05:55.830Z,11.80
2018-09-18T02:08:23.506Z,11.80
2018-09-18T02:10:51.190Z,11.90
2018-09-18T02:13:18.865Z,11.90
2018-09-18T02:15:46.494Z,11.90
2018-09-18T02:18:14.142Z,11.90
2018-09-18T02:20:45.275Z,11.80
2018-09-18T02:23:12.958Z,11.90
2018-09-18T02:25:40.608Z,11.80
2018-09-18T02:28:09.270Z,11.70
2018-09-18T02:30:36.874Z,11.70
2018-09-18T02:33:04.498Z,11.70
2018-09-18T02:35:32.064Z,11.60
2018-09-18T02:37:59.723Z,11.60
2018-09-18T02:40:27.422Z,11.50
2018-09-18T02:42:55.151Z,11.50
2018-09-18T02:45:22.771Z,11.60
2018-09-18T02:47:50.493Z,11.60
2018-09-18T02:50:18.151Z,11.50
2018-09-18T02:52:45.806Z,11.50
2018-09-18T02:55:13.502Z,11.50
2018-09-18T02:57:41.179Z,11.50
2018-09-18T03:00:09.121Z,11.40
2018-09-18T03:02:36.779Z,11.50
2018-09-18T03:05:04.515Z,11.40
2018-09-18T03:07:32.198Z,11.40
2018-09-18T03:09:59.886Z,11.50
2018-09-18T03:12:27.514Z,11.50
2018-09-18T03:14:55.186Z,11.50
2018-09-18T03:17:22.909Z,11.40
2018-09-18T03:19:50.662Z,11.40
2018-09-18T03:22:18.263Z,11.40
2018-09-18T03:24:45.987Z,11.30
2018-09-18T03:27:13.710Z,11.30
2018-09-18T03:29:41.363Z,11.20
2018-09-18T03:32:09.010Z,11.20
2018-09-18T03:34:36.619Z,11.20
2018-09-18T03:37:07.900Z,11.10
2018-09-18T03:39:35.555Z,11.10
2018-09-18T03:42:03.214Z,11.10
2018-09-18T03:44:31.739Z,11.00
2018-09-18T03:46:59.399Z,11.00
2018-09-18T03:49:27.026Z,11.10
2018-09-18T03:51:54.759Z,11.00
2018-09-18T03:54:22.430Z,11.10
2018-09-18T03:56:50.141Z,11.10
2018-09-18T03:59:17.768Z,11.00
2018-09-18T04:01:48.464Z,11.00
2018-09-18T04:04:16.147Z,11.00
2018-09-18T04:06:43.760Z,10.90
2018-09-18T04:09:11.921Z,10.90
2018-09-18T04:11:40.216Z,10.90
2018-09-18T04:14:07.908Z,10.90
2018-09-18T04:16:35.537Z,10.90
2018-09-18T04:19:03.183Z,10.90
2018-09-18T04:21:34.343Z,10.90
2018-09-18T04:24:02.002Z,10.90
2018-09-18T04:26:29.683Z,10.90
2018-09-18T04:28:57.346Z,10.70
2018-09-18T04:31:25.034Z,10.70
2018-09-18T04:33:52.614Z,10.70
2018-09-18T04:36:20.349Z,10.70
2018-09-18T04:38:47.962Z,10.70
2018-09-18T04:41:15.653Z,10.60
2018-09-18T04:43:43.267Z,10.60
2018-09-18T04:46:10.972Z,10.60
2018-09-18T04:48:38.664Z,10.50
2018-09-18T04:51:06.327Z,10.60
2018-09-18T04:53:34.002Z,10.60
2018-09-18T04:56:01.686Z,10.50
2018-09-18T04:58:29.314Z,10.50
2018-09-18T05:00:56.990Z,10.50
2018-09-18T05:03:24.629Z,10.50
2018-09-18T05:05:52.326Z,10.50
2018-09-18T05:08:20.027Z,10.50
2018-09-18T05:10:47.675Z,10.50
2018-09-18T05:13:15.379Z,10.50
2018-09-18T05:15:43.029Z,10.50
2018-09-18T05:18:10.755Z,10.50
2018-09-18T05:20:38.430Z,10.40
2018-09-18T05:23:06.063Z,10.50
2018-09-18T05:25:33.845Z,10.40
2018-09-18T05:28:01.423Z,10.50
2018-09-18T05:30:29.115Z,10.40
2018-09-18T05:32:56.846Z,10.40
2018-09-18T05:35:24.995Z,10.50
2018-09-18T05:37:52.630Z,10.50
2018-09-18T05:40:19.710Z,10.60
2018-09-18T05:42:46.796Z,10.60
2018-09-18T05:45:13.910Z,10.60
2018-09-18T05:47:40.998Z,10.70
2018-09-18T05:50:08.053Z,10.70
2018-09-18T05:52:35.129Z,10.70
2018-09-18T05:55:02.262Z,10.70
2018-09-18T05:57:29.288Z,10.80
2018-09-18T05:59:56.306Z,10.80
2018-09-18T06:02:23.391Z,10.90
2018-09-18T06:04:50.362Z,10.90
2018-09-18T06:07:17.404Z,10.90
2018-09-18T06:09:44.516Z,11.10
2018-09-18T06:12:11.654Z,11.10
2018-09-18T06:14:38.690Z,11.20
2018-09-18T06:17:05.790Z,11.20
2018-09-18T06:19:32.890Z,11.30
2018-09-18T06:21:59.894Z,11.40
2018-09-18T06:24:26.918Z,11.40
2018-09-18T06:26:54.033Z,11.50
2018-09-18T06:29:21.034Z,11.60
2018-09-18T06:31:48.085Z,11.70
2018-09-18T06:34:15.122Z,11.80
2018-09-18T06:36:42.138Z,11.80
2018-09-18T06:39:10.426Z,11.90
2018-09-18T06:41:37.609Z,12.00
2018-09-18T06:44:04.672Z,12.10
2018-09-18T06:46:31.692Z,12.20
2018-09-18T06:48:58.802Z,12.30
2018-09-18T06:51:25.854Z,12.50
2018-09-18T06:53:52.902Z,12.60
2018-09-18T06:56:19.939Z,12.70
2018-09-18T06:58:47.986Z,12.80
2018-09-18T07:01:15.049Z,12.90
2018-09-18T07:03:42.079Z,13.00
2018-09-18T07:06:09.190Z,13.10
2018-09-18T07:08:36.287Z,13.30
2018-09-18T07:11:03.349Z,13.40
2018-09-18T07:13:30.382Z,13.50
2018-09-18T07:15:57.455Z,13.70
2018-09-18T07:18:24.735Z,13.80
2018-09-18T07:20:51.811Z,13.90
2018-09-18T07:23:18.842Z,14.00
2018-09-18T07:25:45.811Z,14.20
2018-09-18T07:28:13.986Z,14.40
2018-09-18T07:30:41.058Z,14.60
2018-09-18T07:33:08.138Z,14.60
2018-09-18T07:35:35.233Z,14.70
2018-09-18T07:38:02.314Z,14.80
2018-09-18T07:40:29.303Z,14.90
2018-09-18T07:42:56.335Z,15.10
2018-09-18T07:45:23.416Z,15.40
2018-09-18T07:47:50.458Z,15.70
2018-09-18T07:50:17.526Z,15.90
2018-09-18T07:52:44.595Z,16.00
2018-09-18T07:55:11.638Z,16.10
2018-09-18T07:57:38.698Z,16.30
2018-09-18T08:00:05.893Z,16.40
2018-09-18T08:02:33.006Z,16.40
2018-09-18T08:05:00.066Z,16.30
2018-09-18T08:07:27.197Z,16.30
2018-09-18T08:09:57.878Z,16.40
2018-09-18T08:12:25.437Z,16.50
2018-09-18T08:14:52.514Z,16.50
2018-09-18T08:17:19.574Z,16.80
2018-09-18T08:19:46.769Z,16.90
2018-09-18T08:22:13.746Z,17.10
2018-09-18T08:24:40.801Z,17.10
2018-09-18T08:27:07.826Z,17.20
2018-09-18T08:29:35.466Z,17.50
2018-09-18T08:32:02.518Z,17.50
2018-09-18T08:34:29.590Z,17.70
2018-09-18T08:36:56.582Z,17.70
2018-09-18T08:39:23.661Z,17.80
2018-09-18T08:41:50.702Z,18.10
2018-09-18T08:44:17.719Z,18.10
2018-09-18T08:46:47.820Z,18.10
2018-09-18T08:49:14.916Z,18.10
2018-09-18T08:51:41.971Z,18.00
2018-09-18T08:54:08.883Z,17.90
2018-09-18T08:56:35.968Z,18.00
2018-09-18T08:59:03.053Z,18.30
2018-09-18T09:01:30.139Z,18.40
2018-09-18T09:03:57.261Z,18.50
2018-09-18T09:06:24.301Z,18.50
2018-09-18T09:08:51.391Z,18.80
2018-09-18T09:11:18.326Z,18.80
2018-09-18T09:13:45.417Z,18.70
2018-09-18T09:16:12.513Z,18.70
2018-09-18T09:18:40.605Z,18.60
2018-09-18T09:21:07.721Z,18.60
2018-09-18T09:23:34.717Z,18.60
2018-09-18T09:26:05.615Z,18.70
2018-09-18T09:28:32.578Z,18.90
2018-09-18T09:30:59.587Z,18.90
2018-09-18T09:33:26.669Z,19.00
2018-09-18T09:35:53.681Z,19.40
2018-09-18T09:38:20.794Z,19.70
2018-09-18T09:40:47.838Z,19.70
2018-09-18T09:43:14.992Z,20.00
2018-09-18T09:45:42.034Z,20.10
2018-09-18T09:48:09.093Z,19.80
2018-09-18T09:50:36.153Z,19.90
2018-09-18T09:53:03.221Z,20.10
2018-09-18T09:55:30.210Z,20.00
2018-09-18T09:57:57.290Z,20.10
2018-09-18T10:00:29.919Z,20.10
2018-09-18T10:02:57.016Z,20.00
2018-09-18T10:05:23.986Z,20.30
2018-09-18T10:07:51.010Z,20.50
2018-09-18T10:10:18.062Z,20.50
2018-09-18T10:12:45.102Z,20.90
2018-09-18T10:15:12.187Z,20.90
2018-09-18T10:17:39.381Z,20.80
2018-09-18T10:20:06.633Z,20.90
2018-09-18T10:22:33.625Z,21.10
2018-09-18T10:25:00.763Z,21.30
2018-09-18T10:27:27.736Z,21.30
2018-09-18T10:29:54.793Z,21.30
2018-09-18T10:32:21.846Z,21.20
2018-09-18T10:34:48.925Z,21.10
2018-09-18T10:37:15.972Z,21.10
2018-09-18T10:39:43.049Z,21.10
2018-09-18T10:42:10.273Z,21.40
2018-09-18T10:44:37.258Z,21.50
2018-09-18T10:47:04.309Z,21.50
2018-09-18T10:49:31.511Z,21.50
2018-09-18T10:51:58.438Z,21.50
2018-09-18T10:54:25.445Z,21.40
2018-09-18T10:56:52.569Z,21.80
2018-09-18T10:59:19.634Z,21.90
2018-09-18T11:01:50.366Z,22.00
2018-09-18T11:04:17.390Z,22.20
2018-09-18T11:06:44.489Z,22.40
2018-09-18T11:09:11.665Z,22.50
2018-09-18T11:11:39.443Z,22.50
2018-09-18T11:14:06.565Z,22.60
2018-09-18T11:16:33.546Z,22.90
2018-09-18T11:19:00.563Z,22.80
2018-09-18T11:21:27.631Z,22.80
2018-09-18T11:23:54.740Z,22.90
2018-09-18T11:26:21.674Z,22.90
2018-09-18T11:28:48.674Z,22.90
2018-09-18T11:31:15.835Z,22.90
2018-09-18T11:33:42.829Z,23.00
2018-09-18T11:36:09.901Z,23.00
2018-09-18T11:38:36.898Z,23.10
2018-09-18T11:41:03.870Z,23.30
2018-09-18T11:43:30.947Z,23.40
2018-09-18T11:45:58.299Z,23.50
2018-09-18T11:48:25.088Z,23.60
2018-09-18T11:50:52.116Z,23.40
2018-09-18T11:53:19.147Z,23.40
2018-09-18T11:55:46.178Z,23.50
2018-09-18T11:58:13.189Z,23.70
2018-09-18T12:00:43.474Z,23.70
2018-09-18T12:03:10.591Z,23.80
2018-09-18T12:05:37.590Z,24.20
2018-09-18T12:08:04.863Z,24.20
2018-09-18T12:10:31.890Z,24.30
2018-09-18T12:12:58.954Z,24.20
2018-09-18T12:15:26.004Z,24.20
2018-09-18T12:17:53.026Z,24.20
2018-09-18T12:20:20.108Z,24.20
2018-09-18T12:22:47.223Z,24.30
2018-09-18T12:25:14.265Z,24.80
2018-09-18T12:27:41.353Z,25.00
2018-09-18T12:30:08.436Z,25.50
2018-09-18T12:32:35.424Z,26.10
2018-09-18T12:35:02.473Z,26.80
2018-09-18T12:37:29.488Z,26.80
2018-09-18T12:39:56.502Z,26.20
2018-09-18T12:42:23.699Z,25.60
2018-09-18T12:44:50.570Z,25.70
2018-09-18T12:47:17.609Z,25.60
2018-09-18T12:49:44.851Z,25.50
2018-09-18T12:52:11.623Z,25.40
2018-09-18T12:54:39.062Z,25.70
2018-09-18T12:57:06.244Z,25.80
2018-09-18T12:59:33.140Z,25.80
2018-09-18T13:02:00.162Z,25.60
2018-09-18T13:04:27.170Z,25.60
2018-09-18T13:06:54.260Z,25.60
2018-09-18T13:09:22.479Z,25.50
2018-09-18T13:11:49.639Z,25.70
2018-09-18T13:14:16.802Z,25.70
2018-09-18T13:16:43.688Z,25.60
2018-09-18T13:19:10.750Z,25.60
2018-09-18T13:21:37.897Z,25.50
2018-09-18T13:24:04.944Z,25.60
2018-09-18T13:26:31.950Z,25.90
2018-09-18T13:28:59.034Z,25.90
2018-09-18T13:31:26.050Z,26.00
2018-09-18T13:33:53.096Z,26.10
2018-09-18T13:36:20.059Z,26.20
2018-09-18T13:38:47.066Z,26.40
2018-09-18T13:41:14.112Z,26.30
2018-09-18T13:43:41.154Z,26.40
2018-09-18T13:46:08.184Z,26.70
2018-09-18T13:48:35.286Z,26.60
2018-09-18T13:51:02.372Z,26.80
2018-09-18T13:53:29.413Z,26.80
2018-09-18T13:55:56.518Z,26.70
2018-09-18T13:58:23.564Z,26.70
2018-09-18T14:00:50.612Z,26.60
2018-09-18T14:03:17.617Z,26.60
2018-09-18T14:05:44.580Z,26.50
2018-09-18T14:08:11.691Z,26.90
2018-09-18T14:10:38.714Z,26.90
2018-09-18T14:13:05.923Z,27.20
2018-09-18T14:15:32.994Z,27.50
2018-09-18T14:18:00.018Z,27.40
2018-09-18T14:20:27.221Z,27.40
2018-09-18T14:22:54.125Z,27.50
2018-09-18T14:25:21.178Z,27.60
2018-09-18T14:27:48.185Z,27.70
2018-09-18T14:30:15.196Z,27.70
2018-09-18T14:32:42.222Z,27.70
2018-09-18T14:35:09.251Z,28.20
2018-09-18T14:44:42.062Z,28.10
2018-09-18T14:47:08.919Z,27.70
2018-09-18T14:49:35.729Z,27.70
2018-09-18T14:52:02.560Z,27.60
2018-09-18T14:54:29.421Z,27.60
2018-09-18T14:56:56.258Z,27.50
2018-09-18T14:59:23.141Z,27.60
2018-09-18T15:01:50.008Z,27.50
2018-09-18T15:04:16.841Z,27.80
2018-09-18T15:06:43.730Z,27.60
2018-09-18T15:09:11.105Z,27.40
2018-09-18T15:11:38.069Z,27.20
2018-09-18T15:14:04.965Z,27.20
2018-09-18T15:16:31.901Z,27.10
2018-09-18T15:18:58.757Z,27.30
2018-09-18T15:21:25.607Z,27.30
2018-09-18T15:23:52.436Z,27.40
2018-09-18T15:26:19.281Z,27.30
2018-09-18T15:28:46.106Z,27.20
2018-09-18T15:31:12.977Z,27.10
2018-09-18T15:33:39.850Z,27.40
2018-09-18T15:36:06.669Z,27.80
2018-09-18T15:38:33.507Z,28.00
2018-09-18T15:41:00.333Z,27.90
2018-09-18T15:43:27.174Z,27.70
2018-09-18T15:45:54.085Z,27.40
2018-09-18T15:48:20.926Z,27.20
2018-09-18T15:50:47.737Z,27.00
2018-09-18T15:53:14.692Z,26.90
2018-09-18T15:55:41.726Z,27.10
2018-09-18T15:58:08.727Z,26.90
2018-09-18T16:00:35.736Z,27.00
2018-09-18T16:03:02.919Z,27.00
2018-09-18T16:05:33.729Z,26.90
2018-09-18T16:08:00.786Z,26.70
2018-09-18T16:10:27.821Z,26.80
2018-09-18T16:12:54.843Z,26.70
2018-09-18T16:15:21.894Z,26.70
2018-09-18T16:17:48.897Z,26.80
2018-09-18T16:20:15.974Z,26.70
2018-09-18T16:22:43.040Z,26.50
2018-09-18T16:25:10.017Z,26.40
2018-09-18T16:27:37.078Z,26.60
2018-09-18T16:30:04.285Z,26.70
2018-09-18T16:32:31.386Z,26.90
2018-09-18T16:34:58.398Z,27.00
2018-09-18T16:37:25.450Z,27.10
2018-09-18T16:39:52.454Z,27.10
2018-09-18T16:42:19.540Z,26.90
2018-09-18T16:44:46.607Z,26.70
2018-09-18T16:47:13.622Z,26.80
2018-09-18T16:49:40.704Z,26.50
2018-09-18T16:54:34.913Z,26.50
2018-09-18T16:57:01.747Z,26.30
2018-09-18T16:59:28.788Z,26.40
2018-09-18T17:01:55.752Z,26.20
2018-09-18T17:04:26.567Z,26.50
2018-09-18T17:06:53.797Z,26.10
2018-09-18T17:09:24.251Z,25.90
2018-09-18T17:11:51.289Z,25.70
2018-09-18T17:14:18.367Z,25.50
2018-09-18T17:16:45.385Z,25.40
2018-09-18T17:19:12.393Z,25.20
2018-09-18T17:21:39.470Z,25.10
2018-09-18T17:24:06.482Z,25.20
2018-09-18T17:26:33.546Z,25.20
2018-09-18T17:29:00.779Z,25.10
2018-09-18T17:31:27.843Z,24.90
2018-09-18T17:33:54.849Z,24.80
2018-09-18T17:36:21.868Z,24.60
2018-09-18T17:38:48.985Z,24.50
2018-09-18T17:41:16.031Z,24.40
2018-09-18T17:43:43.085Z,24.40
2018-09-18T17:46:10.149Z,24.40
2018-09-18T17:48:37.206Z,24.40
2018-09-18T17:51:04.346Z,24.40
2018-09-18T17:53:31.403Z,24.50
2018-09-18T17:55:58.391Z,24.60
2018-09-18T17:58:25.722Z,24.40
2018-09-18T18:00:52.810Z,24.30
2018-09-18T18:03:19.898Z,24.40
2018-09-18T18:05:46.929Z,24.30
2018-09-18T18:08:13.995Z,24.30
2018-09-18T18:10:41.060Z,24.40
2018-09-18T18:13:08.070Z,24.30
2018-09-18T18:15:35.732Z,24.10
2018-09-18T18:18:03.303Z,23.90
2018-09-18T18:20:31.219Z,23.90
2018-09-18T18:22:58.831Z,23.80
2018-09-18T18:25:26.416Z,23.70
2018-09-18T18:27:54.315Z,23.70
2018-09-18T18:30:22.031Z,23.50
2018-09-18T18:32:49.791Z,23.60
2018-09-18T18:35:17.678Z,23.40
2018-09-18T18:37:45.480Z,23.30
2018-09-18T18:40:13.360Z,23.10
2018-09-18T18:42:41.918Z,23.00
2018-09-18T18:45:10.793Z,22.80
2018-09-18T18:47:39.578Z,22.70
2018-09-18T18:50:08.586Z,22.60
2018-09-18T18:52:38.119Z,22.50
2018-09-18T18:55:08.156Z,22.40
2018-09-18T18:57:43.498Z,22.30
2018-09-18T19:00:13.459Z,22.20
2018-09-18T19:02:43.504Z,22.10
2018-09-18T19:05:13.291Z,22.00
2018-09-18T19:07:43.633Z,22.00
2018-09-18T19:10:13.741Z,21.90
2018-09-18T19:12:43.734Z,21.90
2018-09-18T19:15:13.793Z,21.80
2018-09-18T19:17:43.845Z,21.70
2018-09-18T19:20:14.042Z,21.60
2018-09-18T19:22:44.114Z,21.60
2018-09-18T19:25:14.123Z,21.50
2018-09-18T19:27:44.184Z,21.50
2018-09-18T19:30:14.289Z,21.40
2018-09-18T19:32:44.544Z,21.40
2018-09-18T19:35:14.752Z,21.40
2018-09-18T19:37:44.807Z,21.40
2018-09-18T19:40:15.019Z,21.30
2018-09-18T19:42:47.183Z,21.20
2018-09-18T19:45:17.448Z,21.10
2018-09-18T19:47:47.507Z,21.00
2018-09-18T19:50:18.636Z,21.00
2018-09-18T19:52:49.239Z,20.90
2018-09-18T19:55:28.396Z,20.80
2018-09-18T19:57:58.002Z,20.70
2018-09-18T20:00:27.992Z,20.60
2018-09-18T20:03:01.086Z,20.50
2018-09-18T20:05:31.229Z,20.50
2018-09-18T20:08:01.465Z,20.40
2018-09-18T20:10:31.581Z,20.30
2018-09-18T20:13:01.819Z,20.20
2018-09-18T20:15:32.101Z,20.20
2018-09-18T20:18:02.496Z,20.00
2018-09-18T20:20:32.222Z,20.00
2018-09-18T20:23:00.867Z,19.90
2018-09-18T20:25:29.309Z,19.80
2018-09-18T20:27:57.362Z,19.80
2018-09-18T20:30:26.329Z,19.70
2018-09-18T20:32:54.060Z,19.60
2018-09-18T20:35:21.765Z,19.60
2018-09-18T20:37:49.519Z,19.60
2018-09-18T20:40:17.302Z,19.50
2018-09-18T20:42:48.800Z,19.40
2018-09-18T20:45:16.506Z,19.30
2018-09-18T20:47:44.276Z,19.30
2018-09-18T20:50:12.032Z,19.10
2018-09-18T20:52:39.689Z,19.10
2018-09-18T20:55:07.375Z,19.10
2018-09-18T20:57:35.990Z,19.00
2018-09-18T21:00:03.754Z,19.00
2018-09-18T21:02:31.443Z,19.00
2018-09-18T21:04:59.122Z,18.90
2018-09-18T21:07:26.727Z,18.90
2018-09-18T21:09:54.626Z,18.80
2018-09-18T21:12:22.294Z,18.70
2018-09-18T21:14:50.023Z,18.70
2018-09-18T21:17:21.050Z,18.60
2018-09-18T21:19:48.629Z,18.60
2018-09-18T21:22:16.315Z,18.50
2018-09-18T21:24:43.998Z,18.40
2018-09-18T21:27:11.708Z,18.40
2018-09-18T21:29:39.383Z,18.40
2018-09-18T21:32:07.131Z,18.30
2018-09-18T21:34:34.826Z,18.20
2018-09-18T21:37:02.467Z,18.20
2018-09-18T21:39:30.106Z,18.10
2018-09-18T21:41:57.866Z,18.10
2018-09-18T21:44:25.591Z,18.10
2018-09-18T21:46:53.218Z,18.10
2018-09-18T21:49:20.830Z,18.00
2018-09-18T21:51:48.530Z,18.00
2018-09-18T21:54:16.218Z,18.00
2018-09-18T21:56:43.883Z,18.00
2018-09-18T21:59:11.548Z,18.00
2018-09-18T22:01:39.191Z,17.90
2018-09-18T22:04:06.858Z,17.90
2018-09-18T22:06:34.472Z,17.80
2018-09-18T22:09:02.231Z,17.70
2018-09-18T22:11:29.858Z,17.70
2018-09-18T22:13:57.550Z,17.70
2018-09-18T22:16:25.240Z,17.60
2018-09-18T22:18:52.930Z,17.50
2018-09-18T22:21:20.623Z,17.50
2018-09-18T22:23:48.246Z,17.40
2018-09-18T22:26:15.878Z,17.30
2018-09-18T22:28:43.536Z,17.30
2018-09-18T22:31:11.174Z,17.30
2018-09-18T22:33:38.867Z,17.30
2018-09-18T22:36:06.551Z,17.20
2018-09-18T22:38:34.223Z,17.20
2018-09-18T22:41:01.909Z,17.20
2018-09-18T22:43:29.614Z,17.20
2018-09-18T22:45:57.290Z,17.20
2018-09-18T22:48:24.946Z,17.10
2018-09-18T22:50:52.684Z,17.10
2018-09-18T22:53:20.322Z,17.00
2018-09-18T22:55:47.946Z,17.00
2018-09-18T22:58:15.672Z,17.00
2018-09-18T23:00:43.403Z,16.90
2018-09-18T23:03:11.060Z,16.90
2018-09-18T23:05:38.754Z,16.80
2018-09-18T23:08:06.385Z,16.80
2018-09-18T23:10:34.006Z,16.80
2018-09-18T23:13:01.641Z,16.80
2018-09-18T23:15:29.311Z,16.80
2018-09-18T23:17:56.946Z,16.80
2018-09-18T23:20:24.623Z,16.70
2018-09-18T23:22:52.318Z,16.60
2018-09-18T23:25:19.963Z,16.70
2018-09-18T23:27:47.623Z,16.60
2018-09-18T23:30:15.319Z,16.60
2018-09-18T23:32:43.028Z,16.60
2018-09-18T23:35:14.188Z,16.60
2018-09-18T23:37:41.848Z,16.60
2018-09-18T23:40:10.494Z,16.50
2018-09-18T23:42:38.148Z,16.50
2018-09-18T23:45:05.834Z,16.60
2018-09-18T23:47:33.507Z,16.60
2018-09-18T23:50:01.206Z,16.70
2018-09-18T23:52:28.887Z,16.70
2018-09-18T23:54:56.598Z,16.70
2018-09-18T23:57:24.170Z,16.70
2018-09-18T23:59:51.925Z,16.60
